Kiyomaru No.8 — JD2526 — position and weather

sailwx.info

Track history (hours):
 
Tides and Currents Weather Stations Pressure Air Temp Water Temp Dewpoint Dewpoint Depression Visibility Wind Speed Wind Dir Waves Ship Positions

Kiyomaru No.8

Last reported at 2018-Jun-18 19:02 UTC. Time now 2018-Jun-18 22:27 UTC.
Position N 35°31' E 139°58'.

Length 104 m; draft 5 m.

Type: Ship. MMSI: 431000384.

Date/timePositionNaut miles runAvg speedWind from/ knotsBaromVisibWave heightAir tempDewpointWater temp
2018-Jun-18 19:02N 35°31' E 139°58'0 0.0
2018-Jun-18 18:53N 35°31' E 139°58'0 0.0
2018-Jun-18 18:26N 35°31' E 139°58'0 0.0
2018-Jun-18 17:59N 35°31' E 139°58'0 0.0
2018-Jun-18 17:26N 35°31' E 139°58'0 0.0
2018-Jun-18 16:59N 35°31' E 139°58'0 0.0
2018-Jun-18 16:29N 35°31' E 139°58'0 0.0
2018-Jun-18 15:56N 35°31' E 139°58'0 0.0
2018-Jun-18 15:20N 35°31' E 139°58'0 0.0
2018-Jun-18 12:02N 35°31' E 139°58'0 0.0
2018-Jun-18 00:25N 35°31' E 139°58'  
2018-Jun-14 23:03N 35°30' E 139°53'0 8.9
2018-Jun-14 23:00N 35°30' E 139°53'4 8.0
2018-Jun-14 22:30N 35°30' E 139°48'2 4.6
2018-Jun-14 22:00N 35°32' E 139°46'0 0.0
2018-Jun-14 21:30N 35°32' E 139°46'0 0.0
2018-Jun-14 21:00N 35°32' E 139°46'0 0.0
2018-Jun-14 20:30N 35°32' E 139°46'0 0.0
2018-Jun-14 20:00N 35°32' E 139°46'0 0.0
2018-Jun-14 19:30N 35°32' E 139°46'0 0.0
2018-Jun-14 19:00N 35°32' E 139°46'0 0.0
2018-Jun-14 18:30N 35°32' E 139°46'0 0.0
2018-Jun-14 18:00N 35°32' E 139°46'0 0.0
2018-Jun-14 17:30N 35°32' E 139°46'0 0.0
2018-Jun-14 17:00N 35°32' E 139°46'0 0.0
2018-Jun-14 16:30N 35°32' E 139°46'0 0.0
2018-Jun-14 16:00N 35°32' E 139°46'0 0.0
2018-Jun-14 15:30N 35°32' E 139°46'0 0.0
2018-Jun-14 15:00N 35°32' E 139°46'0 0.0
2018-Jun-14 14:30N 35°32' E 139°46'0 0.0
2018-Jun-14 14:00N 35°32' E 139°46'0 0.0
2018-Jun-14 13:30N 35°32' E 139°46'0 0.0
2018-Jun-14 13:00N 35°32' E 139°46'0 0.0
2018-Jun-14 12:30N 35°32' E 139°46'0 0.0
2018-Jun-14 12:00N 35°32' E 139°46'0 0.0
2018-Jun-14 11:30N 35°32' E 139°46'0 0.0
2018-Jun-14 11:00N 35°32' E 139°46'0 0.0
2018-Jun-14 10:30N 35°32' E 139°46'0 0.0
2018-Jun-14 10:00N 35°32' E 139°46'0 0.0
2018-Jun-14 09:30N 35°32' E 139°46'0 0.0
2018-Jun-14 09:00N 35°32' E 139°46'0 0.0
2018-Jun-14 08:30N 35°32' E 139°46'0 0.0
2018-Jun-14 08:00N 35°32' E 139°46'0 0.0
2018-Jun-14 07:30N 35°32' E 139°46'0 0.0
2018-Jun-14 07:00N 35°32' E 139°46'0 0.2
2018-Jun-14 06:30N 35°32' E 139°46'2 3.2
2018-Jun-14 06:00N 35°30' E 139°45'3 6.7
2018-Jun-14 05:30N 35°27' E 139°43'4 7.1
2018-Jun-14 05:00N 35°24' E 139°45'0 0.2
2018-Jun-14 04:30N 35°24' E 139°45'0 0.1
2018-Jun-14 03:59N 35°24' E 139°45'0 0.0
2018-Jun-14 03:29N 35°24' E 139°45'0 0.1
2018-Jun-14 02:59N 35°24' E 139°45'0 0.0
2018-Jun-14 02:30N 35°24' E 139°45'0 0.1
2018-Jun-14 01:57N 35°24' E 139°45'0 0.0
2018-Jun-14 01:26N 35°24' E 139°45'0 0.0
2018-Jun-14 00:57N 35°24' E 139°45'0 0.1
2018-Jun-14 00:29N 35°24' E 139°45'0 0.0
2018-Jun-13 23:59N 35°24' E 139°45'0 0.0
2018-Jun-13 23:29N 35°24' E 139°45'0 0.0
2018-Jun-13 23:00N 35°24' E 139°45'0 0.0
2018-Jun-13 22:30N 35°24' E 139°45'0 0.0
2018-Jun-13 21:59N 35°24' E 139°45'1 1.0
2018-Jun-13 21:30N 35°23' E 139°45'3 6.0
2018-Jun-13 21:00N 35°20' E 139°44'5 9.3
2018-Jun-13 20:30N 35°16' E 139°46'5 9.9
2018-Jun-13 20:00N 35°11' E 139°46'610.7
2018-Jun-13 19:27N 35°05' E 139°45'24510.2
2018-Jun-12 19:25N 33°51' E 135°02'511.2
2018-Jun-12 19:00N 33°55' E 135°00'611.4
2018-Jun-12 18:30N 34°01' E 134°60'611.4
2018-Jun-12 18:00N 34°06' E 134°59'612.3
2018-Jun-12 17:29N 34°13' E 134°59'612.7
2018-Jun-12 17:00N 34°19' E 134°59'510.9
2018-Jun-12 16:30N 34°23' E 135°03'612.0
2018-Jun-12 16:00N 34°27' E 135°09'611.4
2018-Jun-12 15:30N 34°31' E 135°14'4 8.8
2018-Jun-12 15:00N 34°33' E 135°18'0 0.2
2018-Jun-12 14:30N 34°33' E 135°18'0 0.0
2018-Jun-12 13:58N 34°33' E 135°18'0 0.0
2018-Jun-12 13:28N 34°33' E 135°18'0 0.0
2018-Jun-12 12:58N 34°33' E 135°18'0 0.0
2018-Jun-12 12:22N 34°33' E 135°18'0 0.0
2018-Jun-12 11:58N 34°33' E 135°18'0 0.0
2018-Jun-12 11:22N 34°33' E 135°18'0 0.0
2018-Jun-12 10:52N 34°33' E 135°18'0 0.1
2018-Jun-12 10:28N 34°33' E 135°18'0 0.0
2018-Jun-12 09:58N 34°33' E 135°18'0 0.0
2018-Jun-12 09:28N 34°33' E 135°18'0 0.0
2018-Jun-12 08:58N 34°33' E 135°18'0 0.1
2018-Jun-12 08:28N 34°33' E 135°18'0 0.0
2018-Jun-12 07:58N 34°33' E 135°18'0 0.0
2018-Jun-12 07:25N 34°33' E 135°18'0 0.0
2018-Jun-12 06:58N 34°33' E 135°18'0 0.0
2018-Jun-12 06:28N 34°33' E 135°18'0 0.0
2018-Jun-12 05:58N 34°33' E 135°18'0 0.1
2018-Jun-12 05:28N 34°33' E 135°18'0 0.0
2018-Jun-12 04:16N 34°33' E 135°18'0 0.0
2018-Jun-12 03:34N 34°33' E 135°18'0 0.0
2018-Jun-12 03:16N 34°33' E 135°18'0 0.0
2018-Jun-12 02:46N 34°33' E 135°18'0 0.0
2018-Jun-12 02:22N 34°33' E 135°18'0 0.0
2018-Jun-12 01:58N 34°33' E 135°18'0 0.0
2018-Jun-12 01:22N 34°33' E 135°18'0 0.0
2018-Jun-12 00:58N 34°33' E 135°18'0 0.1
2018-Jun-12 00:28N 34°33' E 135°18'0 0.1
2018-Jun-11 23:58N 34°33' E 135°18'0 0.0
2018-Jun-11 23:22N 34°33' E 135°18'0 0.0
2018-Jun-11 22:58N 34°33' E 135°18'0 0.0
2018-Jun-11 22:13N 34°33' E 135°18'0 0.0
2018-Jun-11 21:52N 34°33' E 135°18'0 0.0
2018-Jun-11 21:28N 34°33' E 135°18'0 0.0
2018-Jun-11 20:58N 34°33' E 135°18'0 0.0
2018-Jun-11 20:28N 34°33' E 135°18'0 0.1
2018-Jun-11 19:55N 34°33' E 135°18'0 0.1
2018-Jun-11 19:22N 34°33' E 135°18'0 0.1
2018-Jun-11 18:46N 34°33' E 135°18'0 0.1
2018-Jun-11 18:22N 34°33' E 135°18'0 0.0
2018-Jun-11 17:58N 34°33' E 135°18'0 0.0
2018-Jun-11 17:22N 34°33' E 135°18'0 0.1
2018-Jun-11 16:58N 34°33' E 135°18'0 0.0
2018-Jun-11 16:28N 34°33' E 135°18'0 0.0
2018-Jun-11 15:58N 34°33' E 135°18'0 0.1
2018-Jun-11 15:28N 34°33' E 135°18'0 0.0
2018-Jun-11 14:55N 34°33' E 135°18'0 0.0
2018-Jun-11 14:28N 34°33' E 135°18'0 0.0
2018-Jun-11 13:58N 34°33' E 135°18'0 0.1
2018-Jun-11 13:28N 34°33' E 135°18'0 0.1
2018-Jun-11 12:58N 34°33' E 135°18'0 0.1
2018-Jun-11 12:28N 34°33' E 135°18'0 0.1
2018-Jun-11 11:46N 34°33' E 135°18'0 0.0
2018-Jun-11 11:16N 34°33' E 135°18'0 0.0
2018-Jun-11 10:52N 34°33' E 135°18'0 0.0
2018-Jun-11 10:28N 34°33' E 135°18'0 0.1
2018-Jun-11 09:16N 34°33' E 135°18'0 0.2
2018-Jun-11 08:58N 34°33' E 135°18'0 0.0
2018-Jun-11 08:28N 34°33' E 135°18'0 0.0
2018-Jun-11 07:58N 34°33' E 135°18'0 0.0
2018-Jun-11 07:28N 34°33' E 135°18'0 0.0
2018-Jun-11 06:52N 34°33' E 135°18'0 0.1
2018-Jun-11 06:28N 34°33' E 135°18'0 0.1
2018-Jun-11 05:52N 34°33' E 135°18'0 0.0
2018-Jun-11 05:16N 34°33' E 135°18'0 0.0
2018-Jun-11 04:40N 34°33' E 135°18'0 0.2
2018-Jun-11 04:22N 34°33' E 135°18'0 0.1
2018-Jun-11 03:52N 34°33' E 135°18'0 0.1
2018-Jun-11 03:16N 34°33' E 135°18'0 0.0
2018-Jun-11 02:58N 34°33' E 135°18'0 0.1
2018-Jun-11 02:16N 34°33' E 135°18'0 0.0
2018-Jun-11 01:58N 34°33' E 135°18'0 0.1
2018-Jun-11 01:28N 34°33' E 135°18'0 0.0
2018-Jun-11 00:40N 34°33' E 135°18'0 0.0
2018-Jun-11 00:22N 34°33' E 135°18'0 0.0
2018-Jun-10 23:58N 34°33' E 135°18'0 0.0
2018-Jun-10 23:16N 34°33' E 135°18'0 0.0
2018-Jun-10 21:31N 34°33' E 135°18'0 0.0
2018-Jun-10 21:16N 34°33' E 135°18'0 0.2
2018-Jun-10 20:58N 34°33' E 135°18'2 4.4
2018-Jun-10 20:30N 34°33' E 135°21'4 8.0
2018-Jun-10 19:59N 34°33' E 135°26'0 0.2
2018-Jun-10 19:30N 34°33' E 135°26'0 0.0
2018-Jun-10 18:59N 34°33' E 135°26'0 0.0
2018-Jun-10 18:27N 34°33' E 135°26'0 0.0
2018-Jun-10 18:00N 34°33' E 135°26'0 0.0
2018-Jun-10 17:30N 34°33' E 135°26'0 0.0
2018-Jun-10 17:00N 34°33' E 135°26'0 0.0
2018-Jun-10 16:30N 34°33' E 135°26'0 0.0
2018-Jun-10 16:00N 34°33' E 135°26'0 0.0
2018-Jun-10 15:30N 34°33' E 135°26'0 0.0
2018-Jun-10 15:00N 34°33' E 135°26'0 0.0
2018-Jun-10 14:30N 34°33' E 135°26'0 0.0
2018-Jun-10 13:30N 34°33' E 135°26'0 0.0
2018-Jun-10 13:00N 34°33' E 135°26'0 0.0
2018-Jun-10 12:30N 34°33' E 135°26'0 0.0
2018-Jun-10 12:00N 34°33' E 135°26'0 0.0
2018-Jun-10 11:30N 34°33' E 135°26'0 0.0
2018-Jun-10 11:00N 34°33' E 135°26'0 0.0
2018-Jun-10 10:30N 34°33' E 135°26'0 0.0
2018-Jun-10 10:00N 34°33' E 135°26'0 0.0
2018-Jun-10 09:25N 34°33' E 135°26'0 0.1
2018-Jun-10 09:00N 34°33' E 135°26'1 1.2
2018-Jun-10 08:30N 34°33' E 135°25'2 3.8
2018-Jun-10 07:59N 34°33' E 135°23'4 8.6
2018-Jun-10 07:30N 34°32' E 135°18'0 0.2
2018-Jun-10 06:46N 34°32' E 135°18'0 0.0
2018-Jun-10 06:28N 34°32' E 135°18'0 0.1
2018-Jun-10 05:46N 34°32' E 135°18'0 0.0
2018-Jun-10 05:28N 34°32' E 135°18'0 0.0
2018-Jun-10 04:58N 34°32' E 135°18'0 0.0
2018-Jun-10 04:28N 34°32' E 135°18'0 0.0
2018-Jun-10 03:52N 34°32' E 135°18'0 0.1
2018-Jun-10 03:28N 34°32' E 135°18'0 0.0
2018-Jun-10 02:46N 34°32' E 135°18'0 0.0
2018-Jun-10 02:28N 34°32' E 135°18'0 0.0
2018-Jun-10 01:58N 34°32' E 135°18'0 0.0
2018-Jun-10 01:28N 34°32' E 135°18'0 0.0
2018-Jun-10 00:58N 34°32' E 135°18'0 0.0
2018-Jun-10 00:22N 34°32' E 135°18'0 0.0
2018-Jun-09 23:58N 34°32' E 135°18'0 0.0
2018-Jun-09 23:28N 34°32' E 135°18'0 0.0
2018-Jun-09 22:58N 34°32' E 135°18'0 0.0
2018-Jun-09 22:22N 34°32' E 135°18'0 0.0
2018-Jun-09 21:52N 34°32' E 135°18'0 0.0
2018-Jun-09 21:16N 34°32' E 135°18'0 0.0
2018-Jun-09 20:52N 34°32' E 135°18'0 0.0
2018-Jun-09 20:28N 34°32' E 135°18'0 0.0
2018-Jun-09 19:58N 34°32' E 135°18'0 0.0
2018-Jun-09 19:28N 34°32' E 135°18'0 0.0
2018-Jun-09 18:52N 34°32' E 135°18'0 0.0
2018-Jun-09 18:28N 34°32' E 135°18'0 0.0
2018-Jun-09 17:58N 34°32' E 135°18'0 0.0
2018-Jun-09 17:10N 34°32' E 135°18'0 0.0
2018-Jun-09 16:40N 34°32' E 135°18'0 0.0
2018-Jun-09 16:28N 34°32' E 135°18'0 0.0
2018-Jun-09 14:22N 34°32' E 135°18'0 0.0
2018-Jun-09 13:58N 34°32' E 135°18'0 0.0
2018-Jun-09 13:28N 34°32' E 135°18'0 0.1
2018-Jun-09 13:00N 34°32' E 135°18'3 5.4
2018-Jun-09 12:30N 34°31' E 135°15'510.3
2018-Jun-09 12:00N 34°28' E 135°10'510.6
2018-Jun-09 11:30N 34°24' E 135°05'510.7
2018-Jun-09 11:00N 34°20' E 135°01'611.2
2018-Jun-09 10:30N 34°15' E 134°59'611.8
2018-Jun-09 10:00N 34°09' E 134°59'611.8
2018-Jun-09 09:30N 34°03' E 134°59'611.9
2018-Jun-09 09:00N 33°57' E 134°60'611.4
2018-Jun-09 08:30N 33°51' E 135°01'  
Track history (hours):
 
Tides and Currents Weather Stations Pressure Air Temp Water Temp Dewpoint Dewpoint Depression Visibility Wind Speed Wind Dir Waves Ship Positions

Kiyomaru No.8

Last reported at 2018-Jun-18 19:02 UTC. Time now 2018-Jun-18 22:27 UTC.
Position N 35°31' E 139°58'.

Length 104 m; draft 5 m.

Type: Ship. MMSI: 431000384.

Date/timePositionNaut miles runAvg speedWind from/ knotsBaromVisibWave heightAir tempDewpointWater temp
2018-Jun-18 19:02N 35°31' E 139°58'0 0.0
2018-Jun-18 18:53N 35°31' E 139°58'0 0.0
2018-Jun-18 18:26N 35°31' E 139°58'0 0.0
2018-Jun-18 17:59N 35°31' E 139°58'0 0.0
2018-Jun-18 17:26N 35°31' E 139°58'0 0.0
2018-Jun-18 16:59N 35°31' E 139°58'0 0.0
2018-Jun-18 16:29N 35°31' E 139°58'0 0.0
2018-Jun-18 15:56N 35°31' E 139°58'0 0.0
2018-Jun-18 15:20N 35°31' E 139°58'0 0.0
2018-Jun-18 12:02N 35°31' E 139°58'0 0.0
2018-Jun-18 00:25N 35°31' E 139°58'  
2018-Jun-14 23:03N 35°30' E 139°53'0 8.9
2018-Jun-14 23:00N 35°30' E 139°53'4 8.0
2018-Jun-14 22:30N 35°30' E 139°48'2 4.6
2018-Jun-14 22:00N 35°32' E 139°46'0 0.0
2018-Jun-14 21:30N 35°32' E 139°46'0 0.0
2018-Jun-14 21:00N 35°32' E 139°46'0 0.0
2018-Jun-14 20:30N 35°32' E 139°46'0 0.0
2018-Jun-14 20:00N 35°32' E 139°46'0 0.0
2018-Jun-14 19:30N 35°32' E 139°46'0 0.0
2018-Jun-14 19:00N 35°32' E 139°46'0 0.0
2018-Jun-14 18:30N 35°32' E 139°46'0 0.0
2018-Jun-14 18:00N 35°32' E 139°46'0 0.0
2018-Jun-14 17:30N 35°32' E 139°46'0 0.0
2018-Jun-14 17:00N 35°32' E 139°46'0 0.0
2018-Jun-14 16:30N 35°32' E 139°46'0 0.0
2018-Jun-14 16:00N 35°32' E 139°46'0 0.0
2018-Jun-14 15:30N 35°32' E 139°46'0 0.0
2018-Jun-14 15:00N 35°32' E 139°46'0 0.0
2018-Jun-14 14:30N 35°32' E 139°46'0 0.0
2018-Jun-14 14:00N 35°32' E 139°46'0 0.0
2018-Jun-14 13:30N 35°32' E 139°46'0 0.0
2018-Jun-14 13:00N 35°32' E 139°46'0 0.0
2018-Jun-14 12:30N 35°32' E 139°46'0 0.0
2018-Jun-14 12:00N 35°32' E 139°46'0 0.0
2018-Jun-14 11:30N 35°32' E 139°46'0 0.0
2018-Jun-14 11:00N 35°32' E 139°46'0 0.0
2018-Jun-14 10:30N 35°32' E 139°46'0 0.0
2018-Jun-14 10:00N 35°32' E 139°46'0 0.0
2018-Jun-14 09:30N 35°32' E 139°46'0 0.0
2018-Jun-14 09:00N 35°32' E 139°46'0 0.0
2018-Jun-14 08:30N 35°32' E 139°46'0 0.0
2018-Jun-14 08:00N 35°32' E 139°46'0 0.0
2018-Jun-14 07:30N 35°32' E 139°46'0 0.0
2018-Jun-14 07:00N 35°32' E 139°46'0 0.2
2018-Jun-14 06:30N 35°32' E 139°46'2 3.2
2018-Jun-14 06:00N 35°30' E 139°45'3 6.7
2018-Jun-14 05:30N 35°27' E 139°43'4 7.1
2018-Jun-14 05:00N 35°24' E 139°45'0 0.2
2018-Jun-14 04:30N 35°24' E 139°45'0 0.1
2018-Jun-14 03:59N 35°24' E 139°45'0 0.0
2018-Jun-14 03:29N 35°24' E 139°45'0 0.1
2018-Jun-14 02:59N 35°24' E 139°45'0 0.0
2018-Jun-14 02:30N 35°24' E 139°45'0 0.1
2018-Jun-14 01:57N 35°24' E 139°45'0 0.0
2018-Jun-14 01:26N 35°24' E 139°45'0 0.0
2018-Jun-14 00:57N 35°24' E 139°45'0 0.1
2018-Jun-14 00:29N 35°24' E 139°45'0 0.0
2018-Jun-13 23:59N 35°24' E 139°45'0 0.0
2018-Jun-13 23:29N 35°24' E 139°45'0 0.0
2018-Jun-13 23:00N 35°24' E 139°45'0 0.0
2018-Jun-13 22:30N 35°24' E 139°45'0 0.0
2018-Jun-13 21:59N 35°24' E 139°45'1 1.0
2018-Jun-13 21:30N 35°23' E 139°45'3 6.0
2018-Jun-13 21:00N 35°20' E 139°44'5 9.3
2018-Jun-13 20:30N 35°16' E 139°46'5 9.9
2018-Jun-13 20:00N 35°11' E 139°46'610.7
2018-Jun-13 19:27N 35°05' E 139°45'24510.2
2018-Jun-12 19:25N 33°51' E 135°02'511.2
2018-Jun-12 19:00N 33°55' E 135°00'611.4
2018-Jun-12 18:30N 34°01' E 134°60'611.4
2018-Jun-12 18:00N 34°06' E 134°59'612.3
2018-Jun-12 17:29N 34°13' E 134°59'612.7
2018-Jun-12 17:00N 34°19' E 134°59'510.9
2018-Jun-12 16:30N 34°23' E 135°03'612.0
2018-Jun-12 16:00N 34°27' E 135°09'611.4
2018-Jun-12 15:30N 34°31' E 135°14'4 8.8
2018-Jun-12 15:00N 34°33' E 135°18'0 0.2
2018-Jun-12 14:30N 34°33' E 135°18'0 0.0
2018-Jun-12 13:58N 34°33' E 135°18'0 0.0
2018-Jun-12 13:28N 34°33' E 135°18'0 0.0
2018-Jun-12 12:58N 34°33' E 135°18'0 0.0
2018-Jun-12 12:22N 34°33' E 135°18'0 0.0
2018-Jun-12 11:58N 34°33' E 135°18'0 0.0
2018-Jun-12 11:22N 34°33' E 135°18'0 0.0
2018-Jun-12 10:52N 34°33' E 135°18'0 0.1
2018-Jun-12 10:28N 34°33' E 135°18'0 0.0
2018-Jun-12 09:58N 34°33' E 135°18'0 0.0
2018-Jun-12 09:28N 34°33' E 135°18'0 0.0
2018-Jun-12 08:58N 34°33' E 135°18'0 0.1
2018-Jun-12 08:28N 34°33' E 135°18'0 0.0
2018-Jun-12 07:58N 34°33' E 135°18'0 0.0
2018-Jun-12 07:25N 34°33' E 135°18'0 0.0
2018-Jun-12 06:58N 34°33' E 135°18'0 0.0
2018-Jun-12 06:28N 34°33' E 135°18'0 0.0
2018-Jun-12 05:58N 34°33' E 135°18'0 0.1
2018-Jun-12 05:28N 34°33' E 135°18'0 0.0
2018-Jun-12 04:16N 34°33' E 135°18'0 0.0
2018-Jun-12 03:34N 34°33' E 135°18'0 0.0
2018-Jun-12 03:16N 34°33' E 135°18'0 0.0
2018-Jun-12 02:46N 34°33' E 135°18'0 0.0
2018-Jun-12 02:22N 34°33' E 135°18'0 0.0
2018-Jun-12 01:58N 34°33' E 135°18'0 0.0
2018-Jun-12 01:22N 34°33' E 135°18'0 0.0
2018-Jun-12 00:58N 34°33' E 135°18'0 0.1
2018-Jun-12 00:28N 34°33' E 135°18'0 0.1
2018-Jun-11 23:58N 34°33' E 135°18'0 0.0
2018-Jun-11 23:22N 34°33' E 135°18'0 0.0
2018-Jun-11 22:58N 34°33' E 135°18'0 0.0
2018-Jun-11 22:13N 34°33' E 135°18'0 0.0
2018-Jun-11 21:52N 34°33' E 135°18'0 0.0
2018-Jun-11 21:28N 34°33' E 135°18'0 0.0
2018-Jun-11 20:58N 34°33' E 135°18'0 0.0
2018-Jun-11 20:28N 34°33' E 135°18'0 0.1
2018-Jun-11 19:55N 34°33' E 135°18'0 0.1
2018-Jun-11 19:22N 34°33' E 135°18'0 0.1
2018-Jun-11 18:46N 34°33' E 135°18'0 0.1
2018-Jun-11 18:22N 34°33' E 135°18'0 0.0
2018-Jun-11 17:58N 34°33' E 135°18'0 0.0
2018-Jun-11 17:22N 34°33' E 135°18'0 0.1
2018-Jun-11 16:58N 34°33' E 135°18'0 0.0
2018-Jun-11 16:28N 34°33' E 135°18'0 0.0
2018-Jun-11 15:58N 34°33' E 135°18'0 0.1
2018-Jun-11 15:28N 34°33' E 135°18'0 0.0
2018-Jun-11 14:55N 34°33' E 135°18'0 0.0
2018-Jun-11 14:28N 34°33' E 135°18'0 0.0
2018-Jun-11 13:58N 34°33' E 135°18'0 0.1
2018-Jun-11 13:28N 34°33' E 135°18'0 0.1
2018-Jun-11 12:58N 34°33' E 135°18'0 0.1
2018-Jun-11 12:28N 34°33' E 135°18'0 0.1
2018-Jun-11 11:46N 34°33' E 135°18'0 0.0
2018-Jun-11 11:16N 34°33' E 135°18'0 0.0
2018-Jun-11 10:52N 34°33' E 135°18'0 0.0
2018-Jun-11 10:28N 34°33' E 135°18'0 0.1
2018-Jun-11 09:16N 34°33' E 135°18'0 0.2
2018-Jun-11 08:58N 34°33' E 135°18'0 0.0
2018-Jun-11 08:28N 34°33' E 135°18'0 0.0
2018-Jun-11 07:58N 34°33' E 135°18'0 0.0
2018-Jun-11 07:28N 34°33' E 135°18'0 0.0
2018-Jun-11 06:52N 34°33' E 135°18'0 0.1
2018-Jun-11 06:28N 34°33' E 135°18'0 0.1
2018-Jun-11 05:52N 34°33' E 135°18'0 0.0
2018-Jun-11 05:16N 34°33' E 135°18'0 0.0
2018-Jun-11 04:40N 34°33' E 135°18'0 0.2
2018-Jun-11 04:22N 34°33' E 135°18'0 0.1
2018-Jun-11 03:52N 34°33' E 135°18'0 0.1
2018-Jun-11 03:16N 34°33' E 135°18'0 0.0
2018-Jun-11 02:58N 34°33' E 135°18'0 0.1
2018-Jun-11 02:16N 34°33' E 135°18'0 0.0
2018-Jun-11 01:58N 34°33' E 135°18'0 0.1
2018-Jun-11 01:28N 34°33' E 135°18'0 0.0
2018-Jun-11 00:40N 34°33' E 135°18'0 0.0
2018-Jun-11 00:22N 34°33' E 135°18'0 0.0
2018-Jun-10 23:58N 34°33' E 135°18'0 0.0
2018-Jun-10 23:16N 34°33' E 135°18'0 0.0
2018-Jun-10 21:31N 34°33' E 135°18'0 0.0
2018-Jun-10 21:16N 34°33' E 135°18'0 0.2
2018-Jun-10 20:58N 34°33' E 135°18'2 4.4
2018-Jun-10 20:30N 34°33' E 135°21'4 8.0
2018-Jun-10 19:59N 34°33' E 135°26'0 0.2
2018-Jun-10 19:30N 34°33' E 135°26'0 0.0
2018-Jun-10 18:59N 34°33' E 135°26'0 0.0
2018-Jun-10 18:27N 34°33' E 135°26'0 0.0
2018-Jun-10 18:00N 34°33' E 135°26'0 0.0
2018-Jun-10 17:30N 34°33' E 135°26'0 0.0
2018-Jun-10 17:00N 34°33' E 135°26'0 0.0
2018-Jun-10 16:30N 34°33' E 135°26'0 0.0
2018-Jun-10 16:00N 34°33' E 135°26'0 0.0
2018-Jun-10 15:30N 34°33' E 135°26'0 0.0
2018-Jun-10 15:00N 34°33' E 135°26'0 0.0
2018-Jun-10 14:30N 34°33' E 135°26'0 0.0
2018-Jun-10 13:30N 34°33' E 135°26'0 0.0
2018-Jun-10 13:00N 34°33' E 135°26'0 0.0
2018-Jun-10 12:30N 34°33' E 135°26'0 0.0
2018-Jun-10 12:00N 34°33' E 135°26'0 0.0
2018-Jun-10 11:30N 34°33' E 135°26'0 0.0
2018-Jun-10 11:00N 34°33' E 135°26'0 0.0
2018-Jun-10 10:30N 34°33' E 135°26'0 0.0
2018-Jun-10 10:00N 34°33' E 135°26'0 0.0
2018-Jun-10 09:25N 34°33' E 135°26'0 0.1
2018-Jun-10 09:00N 34°33' E 135°26'1 1.2
2018-Jun-10 08:30N 34°33' E 135°25'2 3.8
2018-Jun-10 07:59N 34°33' E 135°23'4 8.6
2018-Jun-10 07:30N 34°32' E 135°18'0 0.2
2018-Jun-10 06:46N 34°32' E 135°18'0 0.0
2018-Jun-10 06:28N 34°32' E 135°18'0 0.1
2018-Jun-10 05:46N 34°32' E 135°18'0 0.0
2018-Jun-10 05:28N 34°32' E 135°18'0 0.0
2018-Jun-10 04:58N 34°32' E 135°18'0 0.0
2018-Jun-10 04:28N 34°32' E 135°18'0 0.0
2018-Jun-10 03:52N 34°32' E 135°18'0 0.1
2018-Jun-10 03:28N 34°32' E 135°18'0 0.0
2018-Jun-10 02:46N 34°32' E 135°18'0 0.0
2018-Jun-10 02:28N 34°32' E 135°18'0 0.0
2018-Jun-10 01:58N 34°32' E 135°18'0 0.0
2018-Jun-10 01:28N 34°32' E 135°18'0 0.0
2018-Jun-10 00:58N 34°32' E 135°18'0 0.0
2018-Jun-10 00:22N 34°32' E 135°18'0 0.0
2018-Jun-09 23:58N 34°32' E 135°18'0 0.0
2018-Jun-09 23:28N 34°32' E 135°18'0 0.0
2018-Jun-09 22:58N 34°32' E 135°18'0 0.0
2018-Jun-09 22:22N 34°32' E 135°18'0 0.0
2018-Jun-09 21:52N 34°32' E 135°18'0 0.0
2018-Jun-09 21:16N 34°32' E 135°18'0 0.0
2018-Jun-09 20:52N 34°32' E 135°18'0 0.0
2018-Jun-09 20:28N 34°32' E 135°18'0 0.0
2018-Jun-09 19:58N 34°32' E 135°18'0 0.0
2018-Jun-09 19:28N 34°32' E 135°18'0 0.0
2018-Jun-09 18:52N 34°32' E 135°18'0 0.0
2018-Jun-09 18:28N 34°32' E 135°18'0 0.0
2018-Jun-09 17:58N 34°32' E 135°18'0 0.0
2018-Jun-09 17:10N 34°32' E 135°18'0 0.0
2018-Jun-09 16:40N 34°32' E 135°18'0 0.0
2018-Jun-09 16:28N 34°32' E 135°18'0 0.0
2018-Jun-09 14:22N 34°32' E 135°18'0 0.0
2018-Jun-09 13:58N 34°32' E 135°18'0 0.0
2018-Jun-09 13:28N 34°32' E 135°18'0 0.1
2018-Jun-09 13:00N 34°32' E 135°18'3 5.4
2018-Jun-09 12:30N 34°31' E 135°15'510.3
2018-Jun-09 12:00N 34°28' E 135°10'510.6
2018-Jun-09 11:30N 34°24' E 135°05'510.7
2018-Jun-09 11:00N 34°20' E 135°01'611.2
2018-Jun-09 10:30N 34°15' E 134°59'611.8
2018-Jun-09 10:00N 34°09' E 134°59'611.8
2018-Jun-09 09:30N 34°03' E 134°59'611.9
2018-Jun-09 09:00N 33°57' E 134°60'611.4
2018-Jun-09 08:30N 33°51' E 135°01'  

Dump ship's entire track history